createdAt,value
2023-03-05T00:01:26.467Z,102014.78
2023-03-05T00:03:55.843Z,102013.03
2023-03-05T00:06:25.341Z,102019.41
2023-03-05T00:08:53.706Z,102017.78
2023-03-05T00:11:21.580Z,102015.72
2023-03-05T00:13:52.403Z,102016.25
2023-03-05T00:16:20.964Z,102015.16
2023-03-05T00:18:49.387Z,102019.13
2023-03-05T00:21:31.078Z,102015.44
2023-03-05T00:24:01.647Z,102009.78
2023-03-05T00:26:31.016Z,102000.81
2023-03-05T00:28:59.041Z,102004.16
2023-03-05T00:31:32.375Z,101998.09
2023-03-05T00:34:02.643Z,101993.47
2023-03-05T00:36:30.271Z,101997.34
2023-03-05T00:38:58.269Z,101994.09
2023-03-05T00:41:26.113Z,102003.28
2023-03-05T00:43:54.144Z,102005.34
2023-03-05T00:46:23.104Z,102006.25
2023-03-05T00:48:50.653Z,102003.91
2023-03-05T00:51:19.180Z,102012.50
2023-03-05T00:53:46.891Z,102006.19
2023-03-05T00:56:14.391Z,102005.13
2023-03-05T00:58:41.834Z,102003.00
2023-03-05T01:01:09.175Z,101999.41
2023-03-05T01:03:37.124Z,101991.81
2023-03-05T01:06:11.082Z,101994.53
2023-03-05T01:08:39.130Z,101984.06
2023-03-05T01:11:07.683Z,101981.34
2023-03-05T01:13:35.709Z,101980.41
2023-03-05T01:16:04.456Z,101979.56
2023-03-05T01:18:32.149Z,101971.88
2023-03-05T01:20:59.821Z,101972.47
2023-03-05T01:23:27.448Z,101972.75
2023-03-05T01:25:55.637Z,101965.59
2023-03-05T01:28:23.775Z,101959.97
2023-03-05T01:30:51.560Z,101953.56
2023-03-05T01:33:19.246Z,101952.19
2023-03-05T01:35:48.322Z,101947.81
2023-03-05T01:38:16.558Z,101948.44
2023-03-05T01:40:44.350Z,101950.34
2023-03-05T01:43:12.103Z,101949.53
2023-03-05T01:46:00.585Z,101944.41
2023-03-05T01:48:28.345Z,101942.88
2023-03-05T01:50:55.776Z,101935.91
2023-03-05T01:53:23.288Z,101933.63
2023-03-05T01:55:50.926Z,101927.63
2023-03-05T01:58:18.935Z,101921.34
2023-03-05T02:00:48.561Z,101905.91
2023-03-05T02:03:16.745Z,101907.69
2023-03-05T02:05:44.633Z,101913.50
2023-03-05T02:08:18.669Z,101907.13
2023-03-05T02:10:52.819Z,101895.72
2023-03-05T02:13:23.903Z,101896.59
2023-03-05T02:15:54.127Z,101891.50
2023-03-05T02:18:23.448Z,101889.72
2023-03-05T02:20:52.513Z,101885.16
2023-03-05T02:23:21.343Z,101880.59
2023-03-05T02:25:49.335Z,101880.28
2023-03-05T02:28:38.336Z,101876.25
2023-03-05T02:31:25.804Z,101862.31
2023-03-05T02:33:56.106Z,101860.63
2023-03-05T02:36:26.090Z,101859.31
2023-03-05T02:38:57.157Z,101855.19
2023-03-05T02:41:25.499Z,101857.25
2023-03-05T02:43:54.103Z,101847.59
2023-03-05T02:46:21.554Z,101845.81
2023-03-05T02:48:50.046Z,101842.56
2023-03-05T02:51:18.254Z,101845.81
2023-03-05T02:53:46.883Z,101839.50
2023-03-05T02:56:15.007Z,101839.63
2023-03-05T02:58:43.014Z,101839.81
2023-03-05T03:01:10.771Z,101842.63
2023-03-05T03:03:38.497Z,101835.81
2023-03-05T03:06:10.122Z,101840.09
2023-03-05T03:08:37.650Z,101833.44
2023-03-05T03:11:08.561Z,101837.84
2023-03-05T03:13:35.977Z,101839.81
2023-03-05T03:16:07.421Z,101840.25
2023-03-05T03:18:35.326Z,101832.41
2023-03-05T03:21:03.373Z,101838.09
2023-03-05T03:23:31.820Z,101835.69
2023-03-05T03:25:59.459Z,101827.28
2023-03-05T03:28:27.037Z,101818.91
2023-03-05T03:30:55.648Z,101815.91
2023-03-05T03:33:23.066Z,101813.94
2023-03-05T03:35:50.391Z,101812.69
2023-03-05T03:38:17.911Z,101805.59
2023-03-05T03:40:45.165Z,101805.72
2023-03-05T03:43:12.476Z,101797.97
2023-03-05T03:45:44.560Z,101792.97
2023-03-05T03:48:12.095Z,101787.13
2023-03-05T03:50:40.403Z,101790.03
2023-03-05T03:53:09.410Z,101781.78
2023-03-05T03:55:36.785Z,101778.91
2023-03-05T03:58:04.328Z,101773.88
2023-03-05T04:00:31.850Z,101780.16
2023-03-05T04:02:59.538Z,101769.19
2023-03-05T04:05:26.904Z,101767.66
2023-03-05T04:07:54.895Z,101769.53
2023-03-05T04:10:22.370Z,101766.69
2023-03-05T04:12:49.876Z,101767.88
2023-03-05T04:15:17.519Z,101762.19
2023-03-05T04:17:45.130Z,101770.16
2023-03-05T04:20:12.819Z,101766.56
2023-03-05T04:22:40.365Z,101763.91
2023-03-05T04:25:08.488Z,101756.13
2023-03-05T04:27:37.670Z,101759.69
2023-03-05T04:30:05.764Z,101751.50
2023-03-05T04:32:33.318Z,101757.44
2023-03-05T04:35:00.901Z,101756.75
2023-03-05T04:37:28.987Z,101760.28
2023-03-05T04:39:56.780Z,101760.50
2023-03-05T04:42:24.880Z,101754.63
2023-03-05T04:44:52.432Z,101758.72
2023-03-05T04:47:20.001Z,101757.44
2023-03-05T04:49:47.292Z,101761.66
2023-03-05T04:52:14.967Z,101758.59
2023-03-05T04:54:44.177Z,101762.28
2023-03-05T04:57:11.876Z,101749.66
2023-03-05T04:59:39.325Z,101752.78
2023-03-05T05:02:06.940Z,101762.06
2023-03-05T05:04:36.159Z,101754.63
2023-03-05T05:07:04.892Z,101752.03
2023-03-05T05:09:32.308Z,101751.97
2023-03-05T05:11:59.623Z,101746.31
2023-03-05T05:14:26.828Z,101740.13
2023-03-05T05:16:54.204Z,101745.19
2023-03-05T05:19:21.645Z,101737.44
2023-03-05T05:21:49.028Z,101736.47
2023-03-05T05:24:16.460Z,101733.06
2023-03-05T05:26:44.197Z,101733.91
2023-03-05T05:29:11.644Z,101727.75
2023-03-05T05:31:39.258Z,101724.53
2023-03-05T05:34:06.565Z,101726.66
2023-03-05T05:36:33.945Z,101727.69
2023-03-05T05:39:01.230Z,101723.09
2023-03-05T05:41:28.631Z,101732.06
2023-03-05T05:43:56.191Z,101727.50
2023-03-05T05:46:24.785Z,101727.16
2023-03-05T05:48:52.269Z,101729.75
2023-03-05T05:51:20.818Z,101723.53
2023-03-05T05:53:48.615Z,101726.13
2023-03-05T05:56:17.680Z,101723.06
2023-03-05T05:58:47.520Z,101718.03
2023-03-05T06:01:21.101Z,101724.72
2023-03-05T06:03:48.955Z,101715.09
2023-03-05T06:06:19.159Z,101713.66
2023-03-05T06:08:46.922Z,101711.31
2023-03-05T06:11:16.323Z,101710.25
2023-03-05T06:13:45.390Z,101713.66
2023-03-05T06:16:15.962Z,101714.28
2023-03-05T06:18:43.604Z,101724.34
2023-03-05T06:21:12.047Z,101726.59
2023-03-05T06:23:39.661Z,101721.81
2023-03-05T06:26:08.466Z,101722.44
2023-03-05T06:28:36.117Z,101720.53
2023-03-05T06:31:08.109Z,101733.06
2023-03-05T06:33:36.769Z,101733.63
2023-03-05T06:36:09.305Z,101722.63
2023-03-05T06:38:38.056Z,101723.38
2023-03-05T06:41:11.689Z,101731.72
2023-03-05T06:43:41.927Z,101727.69
2023-03-05T06:46:14.892Z,101727.38
2023-03-05T06:48:43.393Z,101723.25
2023-03-05T06:51:16.581Z,101726.50
2023-03-05T06:53:47.738Z,101725.28
2023-03-05T06:56:18.040Z,101732.75
2023-03-05T06:58:47.911Z,101714.03
2023-03-05T07:01:16.221Z,101718.34
2023-03-05T07:03:44.204Z,101718.47
2023-03-05T07:06:14.218Z,101722.75
2023-03-05T07:08:41.814Z,101722.75
2023-03-05T07:11:19.008Z,101722.88
2023-03-05T07:13:49.860Z,101725.03
2023-03-05T07:16:20.426Z,101713.41
2023-03-05T07:18:48.977Z,101707.44
2023-03-05T07:21:22.907Z,101713.63
2023-03-05T07:23:53.005Z,101715.50
2023-03-05T07:26:21.093Z,101716.22
2023-03-05T07:28:49.075Z,101711.91
2023-03-05T07:31:19.369Z,101711.97
2023-03-05T07:33:51.153Z,101714.09
2023-03-05T07:36:20.155Z,101713.47
2023-03-05T07:38:47.732Z,101714.88
2023-03-05T07:41:22.053Z,101713.28
2023-03-05T07:43:52.590Z,101718.34
2023-03-05T07:46:23.438Z,101713.88
2023-03-05T07:48:51.253Z,101708.50
2023-03-05T07:51:20.271Z,101715.50
2023-03-05T07:53:49.716Z,101712.16
2023-03-05T07:56:26.009Z,101714.75
2023-03-05T07:58:53.541Z,101710.13
2023-03-05T08:01:20.911Z,101704.84
2023-03-05T08:03:48.522Z,101709.22
2023-03-05T08:06:16.353Z,101704.44
2023-03-05T08:08:43.916Z,101704.19
2023-03-05T08:11:12.828Z,101697.66
2023-03-05T08:13:40.643Z,101696.91
2023-03-05T08:16:14.211Z,101698.59
2023-03-05T08:18:42.832Z,101696.41
2023-03-05T08:21:30.971Z,101692.63
2023-03-05T08:23:59.034Z,101693.47
2023-03-05T08:26:29.265Z,101687.09
2023-03-05T08:28:57.362Z,101679.53
2023-03-05T08:31:26.979Z,101684.09
2023-03-05T08:33:57.290Z,101676.69
2023-03-05T08:36:24.886Z,101677.16
2023-03-05T08:38:53.186Z,101684.22
2023-03-05T08:41:20.608Z,101675.50
2023-03-05T08:43:48.061Z,101682.00
2023-03-05T08:46:16.904Z,101687.63
2023-03-05T08:48:44.831Z,101687.34
2023-03-05T08:51:15.153Z,101681.38
2023-03-05T08:53:44.218Z,101677.41
2023-03-05T08:56:12.419Z,101677.50
2023-03-05T08:58:40.058Z,101680.16
2023-03-05T09:01:07.526Z,101681.63
2023-03-05T09:03:35.141Z,101668.25
2023-03-05T09:06:06.049Z,101669.34
2023-03-05T09:08:33.769Z,101667.59
2023-03-05T09:11:06.792Z,101665.94
2023-03-05T09:13:34.928Z,101669.66
2023-03-05T09:16:11.700Z,101659.97
2023-03-05T09:18:40.340Z,101656.69
2023-03-05T09:21:09.859Z,101662.69
2023-03-05T09:23:37.956Z,101659.84
2023-03-05T09:26:07.333Z,101656.84
2023-03-05T09:28:35.391Z,101654.50
2023-03-05T09:31:04.544Z,101650.97
2023-03-05T09:33:36.777Z,101654.78
2023-03-05T09:36:05.750Z,101654.56
2023-03-05T09:38:33.213Z,101651.44
2023-03-05T09:41:07.964Z,101649.94
2023-03-05T09:43:52.578Z,101649.88
2023-03-05T09:46:48.298Z,101644.00
2023-03-05T09:49:58.783Z,101640.31
2023-03-05T09:52:50.501Z,101629.81
2023-03-05T09:55:29.576Z,101636.13
2023-03-05T09:58:03.453Z,101630.03
2023-03-05T10:00:39.106Z,101630.34
2023-03-05T10:03:25.851Z,101629.91
2023-03-05T10:06:14.903Z,101625.94
2023-03-05T10:08:52.015Z,101626.03
2023-03-05T10:11:37.141Z,101619.22
2023-03-05T10:14:05.108Z,101622.84
2023-03-05T10:16:57.033Z,101624.75
2023-03-05T10:19:24.545Z,101625.50
2023-03-05T10:22:05.627Z,101615.03
2023-03-05T10:24:51.141Z,101618.38
2023-03-05T10:27:45.469Z,101616.06
2023-03-05T10:30:32.169Z,101609.19
2023-03-05T10:33:20.230Z,101619.47
2023-03-05T10:36:06.332Z,101603.63
2023-03-05T10:39:00.070Z,101607.16
2023-03-05T10:41:45.316Z,101598.22
2023-03-05T10:44:30.772Z,101594.19
2023-03-05T10:47:00.055Z,101601.41
2023-03-05T10:49:32.414Z,101595.84
2023-03-05T10:52:05.784Z,101595.78
2023-03-05T10:54:35.948Z,101583.16
2023-03-05T10:57:12.783Z,101594.34
2023-03-05T10:59:50.030Z,101592.19
2023-03-05T11:02:18.394Z,101584.72
2023-03-05T11:04:47.284Z,101577.19
2023-03-05T11:07:14.851Z,101577.53
2023-03-05T11:10:03.863Z,101570.47
2023-03-05T11:12:35.835Z,101576.56
2023-03-05T11:15:15.064Z,101576.59
2023-03-05T11:17:44.857Z,101570.94
2023-03-05T11:20:27.851Z,101569.63
2023-03-05T11:23:15.650Z,101557.13
2023-03-05T11:25:58.462Z,101558.91
2023-03-05T11:28:33.560Z,101554.09
2023-03-05T11:31:08.280Z,101557.78
2023-03-05T11:33:38.155Z,101561.59
2023-03-05T11:36:34.738Z,101551.66
2023-03-05T11:39:10.324Z,101551.06
2023-03-05T11:41:49.026Z,101545.56
2023-03-05T11:44:34.511Z,101544.81
2023-03-05T11:47:24.980Z,101547.13
2023-03-05T11:50:03.346Z,101545.41
2023-03-05T11:52:42.511Z,101537.63
2023-03-05T11:55:15.743Z,101532.72
2023-03-05T11:57:50.917Z,101525.75
2023-03-05T12:00:24.769Z,101525.75
2023-03-05T12:02:56.816Z,101532.94
2023-03-05T12:05:24.574Z,101523.28
2023-03-05T12:07:55.723Z,101516.09
2023-03-05T12:10:25.055Z,101520.41
2023-03-05T12:13:00.251Z,101524.59
2023-03-05T12:15:47.610Z,101518.69
2023-03-05T12:18:45.910Z,101515.50
2023-03-05T12:21:28.317Z,101504.25
2023-03-05T12:24:04.989Z,101507.31
2023-03-05T12:26:58.362Z,101500.34
2023-03-05T12:29:42.751Z,101494.75
2023-03-05T12:32:22.388Z,101484.22
2023-03-05T12:34:58.844Z,101475.53
2023-03-05T12:37:26.437Z,101470.56
2023-03-05T12:40:01.170Z,101469.00
2023-03-05T12:42:28.590Z,101451.50
2023-03-05T12:45:16.928Z,101453.59
2023-03-05T12:47:48.239Z,101455.44
2023-03-05T12:50:27.750Z,101446.00
2023-03-05T12:53:07.299Z,101440.22
2023-03-05T12:56:12.703Z,101426.50
2023-03-05T12:58:48.560Z,101427.63
2023-03-05T13:01:38.508Z,101427.03
2023-03-05T13:04:15.297Z,101412.72
2023-03-05T13:06:43.105Z,101412.47
2023-03-05T13:09:17.228Z,101405.66
2023-03-05T13:11:48.807Z,101410.34
2023-03-05T13:14:37.127Z,101410.66
2023-03-05T13:17:27.378Z,101409.06
2023-03-05T13:19:55.842Z,101400.66
2023-03-05T13:22:24.762Z,101397.28
2023-03-05T13:25:15.442Z,101389.94
2023-03-05T13:27:43.686Z,101390.13
2023-03-05T13:30:23.553Z,101381.41
2023-03-05T13:32:55.037Z,101382.38
2023-03-05T13:35:23.250Z,101376.06
2023-03-05T13:37:51.079Z,101370.69
2023-03-05T13:40:20.706Z,101368.88
2023-03-05T13:42:48.138Z,101373.25
2023-03-05T13:45:15.751Z,101361.25
2023-03-05T13:47:58.972Z,101352.69
2023-03-05T13:50:36.803Z,101359.88
2023-03-05T13:53:26.430Z,101338.28
2023-03-05T13:55:58.029Z,101339.97
2023-03-05T13:58:52.593Z,101335.72
2023-03-05T14:01:31.228Z,101331.69
2023-03-05T14:04:08.320Z,101329.25
2023-03-05T14:06:42.476Z,101314.66
2023-03-05T14:09:23.771Z,101315.38
2023-03-05T14:12:01.971Z,101310.69
2023-03-05T14:14:34.609Z,101302.00
2023-03-05T14:17:32.449Z,101299.84
2023-03-05T14:20:14.650Z,101291.69
2023-03-05T14:22:45.470Z,101295.69
2023-03-05T14:25:45.664Z,101286.63
2023-03-05T14:28:19.122Z,101281.72
2023-03-05T14:30:48.306Z,101274.38
2023-03-05T14:33:26.127Z,101278.84
2023-03-05T14:35:54.474Z,101265.25
2023-03-05T14:38:25.378Z,101259.31
2023-03-05T14:40:52.905Z,101253.44
2023-03-05T14:43:20.481Z,101251.13
2023-03-05T14:45:48.123Z,101256.41
2023-03-05T14:48:20.361Z,101258.22
2023-03-05T14:50:58.373Z,101247.34
2023-03-05T14:53:29.636Z,101241.16
2023-03-05T14:55:57.412Z,101242.00
2023-03-05T14:58:28.064Z,101240.50
2023-03-05T15:00:56.986Z,101228.38
2023-03-05T15:03:25.150Z,101231.59
2023-03-05T15:05:55.407Z,101230.66
2023-03-05T15:08:29.406Z,101223.97
2023-03-05T15:10:57.620Z,101220.03
2023-03-05T15:13:25.684Z,101213.53
2023-03-05T15:15:55.170Z,101214.22
2023-03-05T15:18:23.823Z,101217.38
2023-03-05T15:20:54.937Z,101194.56
2023-03-05T15:23:22.333Z,101200.56
2023-03-05T15:25:49.845Z,101192.50
2023-03-05T15:28:17.717Z,101181.16
2023-03-05T15:30:47.510Z,101177.16
2023-03-05T15:33:16.751Z,101178.25
2023-03-05T15:35:45.008Z,101169.81
2023-03-05T15:38:12.580Z,101164.72
2023-03-05T15:40:40.029Z,101161.22
2023-03-05T15:43:07.617Z,101154.47
2023-03-05T15:45:34.954Z,101150.97
2023-03-05T15:48:02.383Z,101148.44
2023-03-05T15:50:29.885Z,101149.34
2023-03-05T15:52:58.115Z,101152.09
2023-03-05T15:55:25.745Z,101148.63
2023-03-05T15:57:54.132Z,101144.34
2023-03-05T16:00:29.506Z,101136.69
2023-03-05T16:02:56.993Z,101145.78
2023-03-05T16:05:24.488Z,101143.53
2023-03-05T16:07:53.696Z,101147.72
2023-03-05T16:10:25.327Z,101134.31
2023-03-05T16:13:04.139Z,101136.31
2023-03-05T16:15:33.170Z,101132.84
2023-03-05T16:18:04.527Z,101126.50
2023-03-05T16:20:32.349Z,101126.25
2023-03-05T16:22:59.983Z,101119.16
2023-03-05T16:25:27.439Z,101117.72
2023-03-05T16:27:54.645Z,101118.13
2023-03-05T16:30:21.961Z,101116.38
2023-03-05T16:32:50.481Z,101117.88
2023-03-05T16:35:18.933Z,101115.19
2023-03-05T16:37:46.375Z,101108.31
2023-03-05T16:40:14.499Z,101117.88
2023-03-05T16:42:42.248Z,101111.03
2023-03-05T16:45:11.430Z,101112.44
2023-03-05T16:47:39.643Z,101112.66
2023-03-05T16:50:09.045Z,101112.38
2023-03-05T16:52:36.663Z,101104.09
2023-03-05T16:55:05.833Z,101098.91
2023-03-05T16:57:33.370Z,101094.81
2023-03-05T17:00:02.594Z,101099.16
2023-03-05T17:02:30.263Z,101094.84
2023-03-05T17:04:58.180Z,101099.91
2023-03-05T17:07:26.620Z,101098.00
2023-03-05T17:09:54.655Z,101096.16
2023-03-05T17:12:23.160Z,101094.25
2023-03-05T17:14:50.600Z,101088.19
2023-03-05T17:17:17.967Z,101086.38
2023-03-05T17:19:45.262Z,101085.00
2023-03-05T17:22:12.984Z,101084.63
2023-03-05T17:24:42.966Z,101085.28
2023-03-05T17:27:10.792Z,101083.50
2023-03-05T17:29:38.316Z,101091.13
2023-03-05T17:32:06.046Z,101081.66
2023-03-05T17:34:36.733Z,101081.78
2023-03-05T17:37:05.464Z,101079.69
2023-03-05T17:39:33.118Z,101080.72
2023-03-05T17:42:01.107Z,101073.06
2023-03-05T17:44:28.578Z,101071.72
2023-03-05T17:46:56.216Z,101076.59
2023-03-05T17:49:23.676Z,101087.03
2023-03-05T17:51:51.147Z,101084.28
2023-03-05T17:54:18.740Z,101082.44
2023-03-05T17:56:48.111Z,101073.97
2023-03-05T17:59:16.504Z,101074.88
2023-03-05T18:01:44.064Z,101074.84
2023-03-05T18:04:11.469Z,101074.84
2023-03-05T18:06:39.108Z,101072.16
2023-03-05T18:09:06.882Z,101078.34
2023-03-05T18:11:34.538Z,101079.38
2023-03-05T18:14:02.545Z,101076.06
2023-03-05T18:16:30.481Z,101078.53
2023-03-05T18:18:57.935Z,101071.19
2023-03-05T18:21:28.080Z,101063.31
2023-03-05T18:23:55.690Z,101070.88
2023-03-05T18:26:23.098Z,101075.69
2023-03-05T18:28:50.459Z,101078.44
2023-03-05T18:31:18.335Z,101071.31
2023-03-05T18:33:45.797Z,101071.41
2023-03-05T18:36:15.073Z,101075.06
2023-03-05T18:38:43.065Z,101076.66
2023-03-05T18:41:22.877Z,101073.47
2023-03-05T18:43:50.849Z,101075.19
2023-03-05T18:46:18.457Z,101082.63
2023-03-05T18:48:48.107Z,101080.94
2023-03-05T18:51:20.294Z,101067.84
2023-03-05T18:53:48.328Z,101076.38
2023-03-05T18:56:15.759Z,101075.00
2023-03-05T18:58:43.100Z,101073.28
2023-03-05T19:01:10.411Z,101073.91
2023-03-05T19:03:37.835Z,101078.03
2023-03-05T19:06:08.003Z,101084.13
2023-03-05T19:08:35.782Z,101068.06
2023-03-05T19:11:03.849Z,101070.81
2023-03-05T19:13:43.836Z,101071.38
2023-03-05T19:16:29.399Z,101064.47
2023-03-05T19:19:20.311Z,101071.44
2023-03-05T19:21:50.027Z,101062.56
2023-03-05T19:24:17.806Z,101064.59
2023-03-05T19:26:46.319Z,101056.66
2023-03-05T19:29:14.945Z,101061.03
2023-03-05T19:31:42.664Z,101055.38
2023-03-05T19:34:10.351Z,101059.56
2023-03-05T19:36:37.919Z,101050.97
2023-03-05T19:39:06.915Z,101040.50
2023-03-05T19:41:35.188Z,101052.56
2023-03-05T19:44:04.383Z,101056.00
2023-03-05T19:46:32.300Z,101051.53
2023-03-05T19:48:59.837Z,101054.91
2023-03-05T19:51:27.551Z,101049.91
2023-03-05T19:53:54.984Z,101058.44
2023-03-05T19:56:22.424Z,101046.41
2023-03-05T19:58:49.813Z,101047.53
2023-03-05T20:01:20.699Z,101044.47
2023-03-05T20:03:50.734Z,101048.41
2023-03-05T20:06:18.445Z,101042.91
2023-03-05T20:08:46.767Z,101040.19
2023-03-05T20:11:16.267Z,101042.75
2023-03-05T20:13:44.364Z,101035.00
2023-03-05T20:16:19.172Z,101032.81
2023-03-05T20:18:47.313Z,101032.22
2023-03-05T20:21:21.269Z,101032.47
2023-03-05T20:23:50.509Z,101030.44
2023-03-05T20:26:18.619Z,101021.06
2023-03-05T20:28:46.456Z,101030.25
2023-03-05T20:31:14.038Z,101026.28
2023-03-05T20:33:41.540Z,101032.09
2023-03-05T20:36:08.926Z,101020.75
2023-03-05T20:38:36.793Z,101021.56
2023-03-05T20:41:09.236Z,101024.31
2023-03-05T20:43:40.891Z,101019.69
2023-03-05T20:46:30.230Z,101010.44
2023-03-05T20:49:00.622Z,101015.84
2023-03-05T20:51:30.888Z,101009.84
2023-03-05T20:54:02.645Z,101010.50
2023-03-05T20:56:32.581Z,101012.09
2023-03-05T20:59:03.910Z,100999.63
2023-03-05T21:01:33.749Z,101002.69
2023-03-05T21:04:01.591Z,101008.03
2023-03-05T21:06:31.006Z,101003.25
2023-03-05T21:08:58.811Z,100999.06
2023-03-05T21:11:26.863Z,100996.97
2023-03-05T21:13:54.373Z,100998.53
2023-03-05T21:16:25.408Z,100996.81
2023-03-05T21:18:54.349Z,101004.06
2023-03-05T21:21:21.778Z,100996.06
2023-03-05T21:23:49.241Z,100995.53
2023-03-05T21:26:16.818Z,100991.63
2023-03-05T21:28:44.496Z,100994.09
2023-03-05T21:31:15.557Z,100997.16
2023-03-05T21:33:43.067Z,100994.00
2023-03-05T21:36:10.377Z,100988.38
2023-03-05T21:38:37.929Z,100981.47
2023-03-05T21:41:05.586Z,100981.72
2023-03-05T21:43:33.380Z,100978.28
2023-03-05T21:46:03.252Z,100972.31
2023-03-05T21:48:31.656Z,100975.13
2023-03-05T21:50:59.458Z,100968.84
2023-03-05T21:53:27.083Z,100969.28
2023-03-05T21:56:07.908Z,100967.22
2023-03-05T21:58:35.542Z,100962.06
2023-03-05T22:01:03.379Z,100965.47
2023-03-05T22:03:31.037Z,100955.78
2023-03-05T22:05:58.704Z,100956.56
2023-03-05T22:08:26.296Z,100955.66
2023-03-05T22:10:54.469Z,100952.09
2023-03-05T22:13:21.999Z,100949.47
2023-03-05T22:15:51.015Z,100951.13
2023-03-05T22:18:23.906Z,100942.44
2023-03-05T22:20:52.106Z,100946.06
2023-03-05T22:23:22.489Z,100943.38
2023-03-05T22:26:01.881Z,100949.03
2023-03-05T22:28:30.456Z,100943.81
2023-03-05T22:30:58.571Z,100943.34
2023-03-05T22:33:27.529Z,100948.56
2023-03-05T22:35:55.077Z,100944.94
2023-03-05T22:38:23.072Z,100937.25
2023-03-05T22:40:51.209Z,100936.63
2023-03-05T22:43:19.738Z,100929.22
2023-03-05T22:45:47.429Z,100932.25
2023-03-05T22:48:15.245Z,100927.78
2023-03-05T22:50:44.342Z,100929.50
2023-03-05T22:53:12.635Z,100926.28
2023-03-05T22:55:41.383Z,100921.22
2023-03-05T22:58:09.258Z,100921.94
2023-03-05T23:00:37.386Z,100930.28
2023-03-05T23:03:06.562Z,100933.88
2023-03-05T23:05:35.153Z,100926.94
2023-03-05T23:08:02.801Z,100925.81
2023-03-05T23:10:30.323Z,100921.44
2023-03-05T23:12:59.910Z,100925.94
2023-03-05T23:15:34.339Z,100928.47
2023-03-05T23:18:02.931Z,100921.59
2023-03-05T23:20:36.144Z,100919.75
2023-03-05T23:23:04.310Z,100921.56
2023-03-05T23:25:34.129Z,100915.91
2023-03-05T23:28:02.956Z,100918.25
2023-03-05T23:30:37.353Z,100919.75
2023-03-05T23:33:04.947Z,100914.78
2023-03-05T23:35:43.031Z,100908.78
2023-03-05T23:38:14.311Z,100919.38
2023-03-05T23:40:54.028Z,100904.91
2023-03-05T23:43:24.665Z,100905.69
2023-03-05T23:45:55.118Z,100905.63
2023-03-05T23:48:24.787Z,100907.47
2023-03-05T23:50:52.747Z,100911.13
2023-03-05T23:53:29.691Z,100912.81
2023-03-05T23:55:57.483Z,100905.88
2023-03-05T23:58:25.069Z,100902.44
